Terminal Aerodrome Forecast
Issued by NWS Wilmington, OH

Current Version | Previous Version | Text Only | Print | Product List | Glossary Off
Versions: 1 2 3 4 5 6 7 8 9 10 11 12 13 14 15 16 17 18 19 20 21 22 23 24 25 26

332
FTUS41 KILN 170222 AAA
TAFCVG
TAF AMD
KCVG 170222Z 1702/1806 26012KT P6SM SCT025 OVC035
     FM170900 27013KT P6SM BKN025 OVC035
     FM171400 28016G24KT P6SM SCT040 SCT250
     FM172300 29008KT P6SM SCT250=

USA.gov is the U.S. government's official web portal to all federal, state and local government web resources and services.